sensor_id;sensor_type;location;lat;lon;timestamp;temperature;humidity
20759;DHT22;10539;53.686;9.158;2022-12-07T00:00:02;4.70;99.90
20759;DHT22;10539;53.686;9.158;2022-12-07T00:02:28;4.70;99.90
20759;DHT22;10539;53.686;9.158;2022-12-07T00:04:54;4.80;99.90
20759;DHT22;10539;53.686;9.158;2022-12-07T00:07:20;4.80;99.90
20759;DHT22;10539;53.686;9.158;2022-12-07T00:09:45;4.90;99.90
20759;DHT22;10539;53.686;9.158;2022-12-07T00:12:11;4.90;99.90
20759;DHT22;10539;53.686;9.158;2022-12-07T00:14:36;4.90;99.90
20759;DHT22;10539;53.686;9.158;2022-12-07T00:17:02;5.00;99.90
20759;DHT22;10539;53.686;9.158;2022-12-07T00:19:28;5.00;99.90
20759;DHT22;10539;53.686;9.158;2022-12-07T00:21:53;5.00;99.90
20759;DHT22;10539;53.686;9.158;2022-12-07T00:24:19;5.00;99.90
20759;DHT22;10539;53.686;9.158;2022-12-07T00:26:44;5.00;99.90
20759;DHT22;10539;53.686;9.158;2022-12-07T00:29:19;5.00;99.90
20759;DHT22;10539;53.686;9.158;2022-12-07T00:31:45;5.00;99.90
20759;DHT22;10539;53.686;9.158;2022-12-07T00:34:19;5.00;99.90
20759;DHT22;10539;53.686;9.158;2022-12-07T00:36:45;5.00;99.90
20759;DHT22;10539;53.686;9.158;2022-12-07T00:39:11;5.00;99.90
20759;DHT22;10539;53.686;9.158;2022-12-07T00:41:37;5.00;99.90
20759;DHT22;10539;53.686;9.158;2022-12-07T00:44:02;5.00;99.90
20759;DHT22;10539;53.686;9.158;2022-12-07T00:46:29;5.00;99.90
20759;DHT22;10539;53.686;9.158;2022-12-07T00:48:54;5.00;99.90
20759;DHT22;10539;53.686;9.158;2022-12-07T00:51:22;5.00;99.90
20759;DHT22;10539;53.686;9.158;2022-12-07T00:53:48;5.00;99.90
20759;DHT22;10539;53.686;9.158;2022-12-07T00:56:17;5.00;99.90
20759;DHT22;10539;53.686;9.158;2022-12-07T00:58:43;4.90;99.90
20759;DHT22;10539;53.686;9.158;2022-12-07T01:01:10;4.90;99.90
20759;DHT22;10539;53.686;9.158;2022-12-07T01:03:37;4.80;99.90
20759;DHT22;10539;53.686;9.158;2022-12-07T01:06:03;4.80;99.90
20759;DHT22;10539;53.686;9.158;2022-12-07T01:08:29;4.80;99.90
20759;DHT22;10539;53.686;9.158;2022-12-07T01:11:00;4.80;99.90
20759;DHT22;10539;53.686;9.158;2022-12-07T01:13:27;4.70;99.90
20759;DHT22;10539;53.686;9.158;2022-12-07T01:15:57;4.70;99.90
20759;DHT22;10539;53.686;9.158;2022-12-07T01:18:23;4.70;99.90
20759;DHT22;10539;53.686;9.158;2022-12-07T01:21:03;4.60;99.90
20759;DHT22;10539;53.686;9.158;2022-12-07T01:23:31;4.60;99.90
20759;DHT22;10539;53.686;9.158;2022-12-07T01:25:58;4.60;99.90
20759;DHT22;10539;53.686;9.158;2022-12-07T01:28:25;4.60;99.90
20759;DHT22;10539;53.686;9.158;2022-12-07T01:31:02;4.60;99.90
20759;DHT22;10539;53.686;9.158;2022-12-07T01:33:31;4.60;99.90
20759;DHT22;10539;53.686;9.158;2022-12-07T01:36:17;4.60;99.90
20759;DHT22;10539;53.686;9.158;2022-12-07T01:38:45;4.50;99.90
20759;DHT22;10539;53.686;9.158;2022-12-07T01:41:12;4.50;99.90
20759;DHT22;10539;53.686;9.158;2022-12-07T01:46:39;4.50;99.90
20759;DHT22;10539;53.686;9.158;2022-12-07T01:49:08;4.50;99.90
20759;DHT22;10539;53.686;9.158;2022-12-07T01:51:37;4.50;99.90
20759;DHT22;10539;53.686;9.158;2022-12-07T01:54:04;4.50;99.90
20759;DHT22;10539;53.686;9.158;2022-12-07T01:56:30;4.50;99.90
20759;DHT22;10539;53.686;9.158;2022-12-07T01:58:59;4.50;99.90
20759;DHT22;10539;53.686;9.158;2022-12-07T02:01:26;4.50;99.90
20759;DHT22;10539;53.686;9.158;2022-12-07T02:03:52;4.50;99.90
20759;DHT22;10539;53.686;9.158;2022-12-07T02:06:22;4.40;99.90
20759;DHT22;10539;53.686;9.158;2022-12-07T02:08:49;4.40;99.90
20759;DHT22;10539;53.686;9.158;2022-12-07T02:11:15;4.50;99.90
20759;DHT22;10539;53.686;9.158;2022-12-07T02:13:43;4.50;99.90
20759;DHT22;10539;53.686;9.158;2022-12-07T02:16:19;4.50;99.90
20759;DHT22;10539;53.686;9.158;2022-12-07T02:19:00;4.50;99.90
20759;DHT22;10539;53.686;9.158;2022-12-07T02:24:37;4.60;99.90
20759;DHT22;10539;53.686;9.158;2022-12-07T02:27:17;4.60;99.90
20759;DHT22;10539;53.686;9.158;2022-12-07T02:30:08;4.60;99.90
20759;DHT22;10539;53.686;9.158;2022-12-07T02:32:49;4.60;99.90
20759;DHT22;10539;53.686;9.158;2022-12-07T02:40:40;4.60;99.90
20759;DHT22;10539;53.686;9.158;2022-12-07T02:43:28;4.60;99.90
20759;DHT22;10539;53.686;9.158;2022-12-07T02:45:58;4.60;99.90
20759;DHT22;10539;53.686;9.158;2022-12-07T02:48:27;4.60;99.90
20759;DHT22;10539;53.686;9.158;2022-12-07T02:50:54;4.60;99.90
20759;DHT22;10539;53.686;9.158;2022-12-07T02:53:34;4.60;99.90
20759;DHT22;10539;53.686;9.158;2022-12-07T03:08:01;4.60;99.90
20759;DHT22;10539;53.686;9.158;2022-12-07T03:13:12;4.60;99.90
20759;DHT22;10539;53.686;9.158;2022-12-07T03:18:30;4.60;99.90
20759;DHT22;10539;53.686;9.158;2022-12-07T03:21:02;4.60;99.90
20759;DHT22;10539;53.686;9.158;2022-12-07T03:23:32;4.60;99.90
20759;DHT22;10539;53.686;9.158;2022-12-07T03:26:01;4.60;99.90
20759;DHT22;10539;53.686;9.158;2022-12-07T03:28:32;4.60;99.90
20759;DHT22;10539;53.686;9.158;2022-12-07T03:33:41;4.60;99.90
20759;DHT22;10539;53.686;9.158;2022-12-07T03:36:14;4.70;99.90
20759;DHT22;10539;53.686;9.158;2022-12-07T03:38:45;4.70;99.90
20759;DHT22;10539;53.686;9.158;2022-12-07T03:41:23;4.70;99.90
20759;DHT22;10539;53.686;9.158;2022-12-07T03:43:50;4.70;99.90
20759;DHT22;10539;53.686;9.158;2022-12-07T03:46:44;4.70;99.90
20759;DHT22;10539;53.686;9.158;2022-12-07T03:54:23;4.80;99.90
20759;DHT22;10539;53.686;9.158;2022-12-07T03:56:50;4.80;99.90
20759;DHT22;10539;53.686;9.158;2022-12-07T03:59:18;4.80;99.90
20759;DHT22;10539;53.686;9.158;2022-12-07T04:01:50;4.80;99.90
20759;DHT22;10539;53.686;9.158;2022-12-07T04:04:17;4.80;99.90
20759;DHT22;10539;53.686;9.158;2022-12-07T04:06:42;4.80;99.90
20759;DHT22;10539;53.686;9.158;2022-12-07T04:09:08;4.70;99.90
20759;DHT22;10539;53.686;9.158;2022-12-07T04:11:34;4.70;99.90
20759;DHT22;10539;53.686;9.158;2022-12-07T04:14:00;4.70;99.90
20759;DHT22;10539;53.686;9.158;2022-12-07T04:16:51;4.70;99.90
20759;DHT22;10539;53.686;9.158;2022-12-07T04:19:20;4.70;99.90
20759;DHT22;10539;53.686;9.158;2022-12-07T04:21:46;4.60;99.90
20759;DHT22;10539;53.686;9.158;2022-12-07T04:24:14;4.60;99.90
20759;DHT22;10539;53.686;9.158;2022-12-07T04:26:41;4.60;99.90
20759;DHT22;10539;53.686;9.158;2022-12-07T04:29:07;4.50;99.90
20759;DHT22;10539;53.686;9.158;2022-12-07T04:31:33;4.50;99.90
20759;DHT22;10539;53.686;9.158;2022-12-07T04:33:58;4.40;99.90
20759;DHT22;10539;53.686;9.158;2022-12-07T04:36:24;4.40;99.90
20759;DHT22;10539;53.686;9.158;2022-12-07T04:38:52;4.40;99.90
20759;DHT22;10539;53.686;9.158;2022-12-07T04:41:18;4.30;99.90
20759;DHT22;10539;53.686;9.158;2022-12-07T04:43:43;4.30;99.90
20759;DHT22;10539;53.686;9.158;2022-12-07T04:46:09;4.30;99.90
20759;DHT22;10539;53.686;9.158;2022-12-07T04:48:35;4.30;99.90
20759;DHT22;10539;53.686;9.158;2022-12-07T04:51:02;4.30;99.90
20759;DHT22;10539;53.686;9.158;2022-12-07T04:53:28;4.30;99.90
20759;DHT22;10539;53.686;9.158;2022-12-07T04:55:54;4.20;99.90
20759;DHT22;10539;53.686;9.158;2022-12-07T04:58:20;4.20;99.90
20759;DHT22;10539;53.686;9.158;2022-12-07T05:00:45;4.20;99.90
20759;DHT22;10539;53.686;9.158;2022-12-07T05:03:11;4.10;99.90
20759;DHT22;10539;53.686;9.158;2022-12-07T05:05:40;4.10;99.90
20759;DHT22;10539;53.686;9.158;2022-12-07T05:08:06;4.10;99.90
20759;DHT22;10539;53.686;9.158;2022-12-07T05:10:32;4.10;99.90
20759;DHT22;10539;53.686;9.158;2022-12-07T05:12:57;4.10;99.90
20759;DHT22;10539;53.686;9.158;2022-12-07T05:15:23;4.10;99.90
20759;DHT22;10539;53.686;9.158;2022-12-07T05:17:48;4.10;99.90
20759;DHT22;10539;53.686;9.158;2022-12-07T05:20:14;4.10;99.90
20759;DHT22;10539;53.686;9.158;2022-12-07T05:22:40;4.10;99.90
20759;DHT22;10539;53.686;9.158;2022-12-07T05:25:06;4.10;99.90
20759;DHT22;10539;53.686;9.158;2022-12-07T05:27:32;4.10;99.90
20759;DHT22;10539;53.686;9.158;2022-12-07T05:29:58;4.10;99.90
20759;DHT22;10539;53.686;9.158;2022-12-07T05:32:23;4.10;99.90
20759;DHT22;10539;53.686;9.158;2022-12-07T05:34:49;4.10;99.90
20759;DHT22;10539;53.686;9.158;2022-12-07T05:37:15;4.20;99.90
20759;DHT22;10539;53.686;9.158;2022-12-07T05:39:40;4.20;99.90
20759;DHT22;10539;53.686;9.158;2022-12-07T05:42:10;4.20;99.90
20759;DHT22;10539;53.686;9.158;2022-12-07T05:44:43;4.20;99.90
20759;DHT22;10539;53.686;9.158;2022-12-07T05:47:10;4.20;99.90
20759;DHT22;10539;53.686;9.158;2022-12-07T05:49:36;4.10;99.90
20759;DHT22;10539;53.686;9.158;2022-12-07T05:52:02;4.10;99.90
20759;DHT22;10539;53.686;9.158;2022-12-07T05:54:28;4.10;99.90
20759;DHT22;10539;53.686;9.158;2022-12-07T05:56:54;4.00;99.90
20759;DHT22;10539;53.686;9.158;2022-12-07T05:59:20;4.00;99.90
20759;DHT22;10539;53.686;9.158;2022-12-07T06:01:58;4.00;99.90
20759;DHT22;10539;53.686;9.158;2022-12-07T06:04:27;4.00;99.90
20759;DHT22;10539;53.686;9.158;2022-12-07T06:06:54;3.90;99.90
20759;DHT22;10539;53.686;9.158;2022-12-07T06:09:21;3.90;99.90
20759;DHT22;10539;53.686;9.158;2022-12-07T06:11:48;3.90;99.90
20759;DHT22;10539;53.686;9.158;2022-12-07T06:14:32;3.90;99.90
20759;DHT22;10539;53.686;9.158;2022-12-07T06:16:58;3.90;99.90
20759;DHT22;10539;53.686;9.158;2022-12-07T06:19:24;3.90;99.90
20759;DHT22;10539;53.686;9.158;2022-12-07T06:21:50;3.90;99.90
20759;DHT22;10539;53.686;9.158;2022-12-07T06:24:17;3.90;99.90
20759;DHT22;10539;53.686;9.158;2022-12-07T06:26:43;4.00;99.90
20759;DHT22;10539;53.686;9.158;2022-12-07T06:29:09;3.90;99.90
20759;DHT22;10539;53.686;9.158;2022-12-07T06:31:36;3.90;99.90
20759;DHT22;10539;53.686;9.158;2022-12-07T06:34:04;3.90;99.90
20759;DHT22;10539;53.686;9.158;2022-12-07T06:36:31;3.90;99.90
20759;DHT22;10539;53.686;9.158;2022-12-07T06:38:56;4.00;99.90
20759;DHT22;10539;53.686;9.158;2022-12-07T06:41:22;4.00;99.90
20759;DHT22;10539;53.686;9.158;2022-12-07T06:43:48;4.00;99.90
20759;DHT22;10539;53.686;9.158;2022-12-07T06:46:15;4.00;99.90
20759;DHT22;10539;53.686;9.158;2022-12-07T06:48:42;4.00;99.90
20759;DHT22;10539;53.686;9.158;2022-12-07T06:51:08;4.00;99.90
20759;DHT22;10539;53.686;9.158;2022-12-07T06:53:35;4.00;99.90
20759;DHT22;10539;53.686;9.158;2022-12-07T06:56:00;4.00;99.90
20759;DHT22;10539;53.686;9.158;2022-12-07T06:58:27;4.00;99.90
20759;DHT22;10539;53.686;9.158;2022-12-07T07:00:53;4.00;99.90
20759;DHT22;10539;53.686;9.158;2022-12-07T07:03:19;4.00;99.90
20759;DHT22;10539;53.686;9.158;2022-12-07T07:05:45;4.00;99.90
20759;DHT22;10539;53.686;9.158;2022-12-07T07:08:11;4.00;99.90
20759;DHT22;10539;53.686;9.158;2022-12-07T07:10:38;4.00;99.90
20759;DHT22;10539;53.686;9.158;2022-12-07T07:13:05;4.00;99.90
20759;DHT22;10539;53.686;9.158;2022-12-07T07:15:32;4.00;99.90
20759;DHT22;10539;53.686;9.158;2022-12-07T07:17:58;4.00;99.90
20759;DHT22;10539;53.686;9.158;2022-12-07T07:20:24;4.00;99.90
20759;DHT22;10539;53.686;9.158;2022-12-07T07:22:50;4.00;99.90
20759;DHT22;10539;53.686;9.158;2022-12-07T07:25:15;4.00;99.90
20759;DHT22;10539;53.686;9.158;2022-12-07T07:27:41;4.00;99.90
20759;DHT22;10539;53.686;9.158;2022-12-07T07:30:08;4.00;99.90
20759;DHT22;10539;53.686;9.158;2022-12-07T07:32:34;4.00;99.90
20759;DHT22;10539;53.686;9.158;2022-12-07T07:34:59;4.00;99.90
20759;DHT22;10539;53.686;9.158;2022-12-07T07:37:25;4.10;99.90
20759;DHT22;10539;53.686;9.158;2022-12-07T07:39:51;4.10;99.90
20759;DHT22;10539;53.686;9.158;2022-12-07T07:42:17;4.10;99.90
20759;DHT22;10539;53.686;9.158;2022-12-07T07:44:43;4.20;99.90
20759;DHT22;10539;53.686;9.158;2022-12-07T07:47:08;4.20;99.90
20759;DHT22;10539;53.686;9.158;2022-12-07T07:49:34;4.20;99.90
20759;DHT22;10539;53.686;9.158;2022-12-07T07:52:00;4.20;99.90
20759;DHT22;10539;53.686;9.158;2022-12-07T07:54:25;4.30;99.90
20759;DHT22;10539;53.686;9.158;2022-12-07T07:56:52;4.30;99.90
20759;DHT22;10539;53.686;9.158;2022-12-07T07:59:18;4.30;99.90
20759;DHT22;10539;53.686;9.158;2022-12-07T08:01:44;4.30;99.90
20759;DHT22;10539;53.686;9.158;2022-12-07T08:04:09;4.40;99.90
20759;DHT22;10539;53.686;9.158;2022-12-07T08:06:35;4.40;99.90
20759;DHT22;10539;53.686;9.158;2022-12-07T08:09:02;4.40;99.90
20759;DHT22;10539;53.686;9.158;2022-12-07T08:11:28;4.40;99.90
20759;DHT22;10539;53.686;9.158;2022-12-07T08:13:54;4.40;99.90
20759;DHT22;10539;53.686;9.158;2022-12-07T08:16:19;4.40;99.90
20759;DHT22;10539;53.686;9.158;2022-12-07T08:18:45;4.40;99.90
20759;DHT22;10539;53.686;9.158;2022-12-07T08:21:13;4.40;99.90
20759;DHT22;10539;53.686;9.158;2022-12-07T08:23:39;4.50;99.90
20759;DHT22;10539;53.686;9.158;2022-12-07T08:26:06;4.40;99.90
20759;DHT22;10539;53.686;9.158;2022-12-07T08:28:32;4.40;99.90
20759;DHT22;10539;53.686;9.158;2022-12-07T08:30:59;4.40;99.90
20759;DHT22;10539;53.686;9.158;2022-12-07T08:33:26;4.40;99.90
20759;DHT22;10539;53.686;9.158;2022-12-07T08:35:52;4.40;99.90
20759;DHT22;10539;53.686;9.158;2022-12-07T08:38:17;4.50;99.90
20759;DHT22;10539;53.686;9.158;2022-12-07T08:40:43;4.50;99.90
20759;DHT22;10539;53.686;9.158;2022-12-07T08:43:09;4.50;99.90
20759;DHT22;10539;53.686;9.158;2022-12-07T08:45:34;4.50;99.90
20759;DHT22;10539;53.686;9.158;2022-12-07T08:48:07;4.50;99.90
20759;DHT22;10539;53.686;9.158;2022-12-07T08:50:36;4.50;99.90
20759;DHT22;10539;53.686;9.158;2022-12-07T08:53:03;4.50;99.90
20759;DHT22;10539;53.686;9.158;2022-12-07T08:55:30;4.50;99.90
20759;DHT22;10539;53.686;9.158;2022-12-07T08:57:58;4.50;99.90
20759;DHT22;10539;53.686;9.158;2022-12-07T09:00:24;4.50;99.90
20759;DHT22;10539;53.686;9.158;2022-12-07T09:02:50;4.50;99.90
20759;DHT22;10539;53.686;9.158;2022-12-07T09:05:15;4.50;99.90
20759;DHT22;10539;53.686;9.158;2022-12-07T09:07:43;4.50;99.90
20759;DHT22;10539;53.686;9.158;2022-12-07T09:10:10;4.50;99.90
20759;DHT22;10539;53.686;9.158;2022-12-07T09:12:36;4.50;99.90
20759;DHT22;10539;53.686;9.158;2022-12-07T09:15:03;4.50;99.90
20759;DHT22;10539;53.686;9.158;2022-12-07T09:17:32;4.50;99.90
20759;DHT22;10539;53.686;9.158;2022-12-07T09:19:58;4.60;99.90
20759;DHT22;10539;53.686;9.158;2022-12-07T09:22:23;4.60;99.90
20759;DHT22;10539;53.686;9.158;2022-12-07T09:24:49;4.60;99.90
20759;DHT22;10539;53.686;9.158;2022-12-07T09:27:15;4.60;99.90
20759;DHT22;10539;53.686;9.158;2022-12-07T09:29:42;4.60;99.90
20759;DHT22;10539;53.686;9.158;2022-12-07T09:32:08;4.60;99.90
20759;DHT22;10539;53.686;9.158;2022-12-07T09:34:34;4.60;99.90
20759;DHT22;10539;53.686;9.158;2022-12-07T09:37:00;4.60;99.90
20759;DHT22;10539;53.686;9.158;2022-12-07T09:39:26;4.70;99.90
20759;DHT22;10539;53.686;9.158;2022-12-07T09:41:52;4.70;99.90
20759;DHT22;10539;53.686;9.158;2022-12-07T09:44:24;4.70;99.90
20759;DHT22;10539;53.686;9.158;2022-12-07T09:46:50;4.80;99.90
20759;DHT22;10539;53.686;9.158;2022-12-07T09:49:20;4.80;99.90
20759;DHT22;10539;53.686;9.158;2022-12-07T09:51:46;4.90;99.90
20759;DHT22;10539;53.686;9.158;2022-12-07T09:54:14;4.90;99.90
20759;DHT22;10539;53.686;9.158;2022-12-07T09:56:41;4.90;99.90
20759;DHT22;10539;53.686;9.158;2022-12-07T09:59:13;5.00;99.90
20759;DHT22;10539;53.686;9.158;2022-12-07T10:01:42;5.10;99.90
20759;DHT22;10539;53.686;9.158;2022-12-07T10:04:20;5.10;99.90
20759;DHT22;10539;53.686;9.158;2022-12-07T10:06:47;5.20;99.90
20759;DHT22;10539;53.686;9.158;2022-12-07T10:09:15;5.30;99.90
20759;DHT22;10539;53.686;9.158;2022-12-07T10:14:31;5.30;99.90
20759;DHT22;10539;53.686;9.158;2022-12-07T10:16:57;5.40;99.90
20759;DHT22;10539;53.686;9.158;2022-12-07T10:19:31;5.40;99.90
20759;DHT22;10539;53.686;9.158;2022-12-07T10:22:16;5.40;99.90
20759;DHT22;10539;53.686;9.158;2022-12-07T10:24:43;5.40;99.90
20759;DHT22;10539;53.686;9.158;2022-12-07T10:27:31;5.40;99.90
20759;DHT22;10539;53.686;9.158;2022-12-07T10:29:58;5.40;99.90
20759;DHT22;10539;53.686;9.158;2022-12-07T10:32:32;5.40;99.90
20759;DHT22;10539;53.686;9.158;2022-12-07T10:35:20;5.40;99.90
20759;DHT22;10539;53.686;9.158;2022-12-07T10:37:47;5.50;99.90
20759;DHT22;10539;53.686;9.158;2022-12-07T10:40:34;5.50;99.90
20759;DHT22;10539;53.686;9.158;2022-12-07T10:45:26;5.60;99.90
20759;DHT22;10539;53.686;9.158;2022-12-07T10:48:12;5.60;99.90
20759;DHT22;10539;53.686;9.158;2022-12-07T10:51:00;5.60;99.90
20759;DHT22;10539;53.686;9.158;2022-12-07T11:01:54;5.70;99.90
20759;DHT22;10539;53.686;9.158;2022-12-07T11:17:56;5.80;99.90
20759;DHT22;10539;53.686;9.158;2022-12-07T11:20:34;5.80;99.90
20759;DHT22;10539;53.686;9.158;2022-12-07T11:23:27;5.90;99.90
20759;DHT22;10539;53.686;9.158;2022-12-07T11:31:36;6.00;99.90
20759;DHT22;10539;53.686;9.158;2022-12-07T11:34:06;6.00;99.90
20759;DHT22;10539;53.686;9.158;2022-12-07T11:36:40;6.00;99.90
20759;DHT22;10539;53.686;9.158;2022-12-07T11:41:42;6.10;99.90
20759;DHT22;10539;53.686;9.158;2022-12-07T11:47:10;6.20;99.90
20759;DHT22;10539;53.686;9.158;2022-12-07T11:49:47;6.20;99.90
20759;DHT22;10539;53.686;9.158;2022-12-07T11:52:43;6.20;99.90
20759;DHT22;10539;53.686;9.158;2022-12-07T12:06:40;6.40;99.90
20759;DHT22;10539;53.686;9.158;2022-12-07T12:17:53;6.50;99.90
20759;DHT22;10539;53.686;9.158;2022-12-07T12:20:37;6.50;99.90
20759;DHT22;10539;53.686;9.158;2022-12-07T12:26:02;6.60;99.90
20759;DHT22;10539;53.686;9.158;2022-12-07T12:33:53;6.60;99.90
20759;DHT22;10539;53.686;9.158;2022-12-07T12:36:43;6.60;99.90
20759;DHT22;10539;53.686;9.158;2022-12-07T12:39:17;6.60;99.90
20759;DHT22;10539;53.686;9.158;2022-12-07T12:52:01;6.30;99.90
20759;DHT22;10539;53.686;9.158;2022-12-07T12:55:22;6.30;99.90
20759;DHT22;10539;53.686;9.158;2022-12-07T13:00:46;6.20;99.90
20759;DHT22;10539;53.686;9.158;2022-12-07T13:03:29;6.10;99.90
20759;DHT22;10539;53.686;9.158;2022-12-07T13:08:53;6.20;99.90
20759;DHT22;10539;53.686;9.158;2022-12-07T13:20:02;6.30;99.90
20759;DHT22;10539;53.686;9.158;2022-12-07T13:24:57;6.30;99.90
20759;DHT22;10539;53.686;9.158;2022-12-07T13:27:25;6.30;99.90
20759;DHT22;10539;53.686;9.158;2022-12-07T13:29:53;6.30;99.90
20759;DHT22;10539;53.686;9.158;2022-12-07T13:32:28;6.30;99.90
20759;DHT22;10539;53.686;9.158;2022-12-07T13:34:55;6.30;99.90
20759;DHT22;10539;53.686;9.158;2022-12-07T13:37:28;6.20;99.90
20759;DHT22;10539;53.686;9.158;2022-12-07T13:40:01;6.20;99.90
20759;DHT22;10539;53.686;9.158;2022-12-07T13:42:34;6.20;99.90
20759;DHT22;10539;53.686;9.158;2022-12-07T13:45:20;6.20;99.90
20759;DHT22;10539;53.686;9.158;2022-12-07T13:47:52;6.20;99.90
20759;DHT22;10539;53.686;9.158;2022-12-07T13:50:29;6.20;99.90
20759;DHT22;10539;53.686;9.158;2022-12-07T13:52:57;6.10;99.90
20759;DHT22;10539;53.686;9.158;2022-12-07T13:55:23;6.10;99.90
20759;DHT22;10539;53.686;9.158;2022-12-07T13:57:51;6.10;99.90
20759;DHT22;10539;53.686;9.158;2022-12-07T14:00:26;6.10;99.90
20759;DHT22;10539;53.686;9.158;2022-12-07T14:03:00;6.10;99.90
20759;DHT22;10539;53.686;9.158;2022-12-07T14:05:35;6.00;99.90
20759;DHT22;10539;53.686;9.158;2022-12-07T14:10:35;6.00;99.90
20759;DHT22;10539;53.686;9.158;2022-12-07T14:13:03;5.90;99.90
20759;DHT22;10539;53.686;9.158;2022-12-07T14:15:32;5.90;99.90
20759;DHT22;10539;53.686;9.158;2022-12-07T14:17:59;5.80;99.90
20759;DHT22;10539;53.686;9.158;2022-12-07T14:20:39;5.80;99.90
20759;DHT22;10539;53.686;9.158;2022-12-07T14:23:21;5.80;99.90
20759;DHT22;10539;53.686;9.158;2022-12-07T14:25:49;5.80;99.90
20759;DHT22;10539;53.686;9.158;2022-12-07T14:30:55;5.80;99.90
20759;DHT22;10539;53.686;9.158;2022-12-07T14:33:21;5.90;99.90
20759;DHT22;10539;53.686;9.158;2022-12-07T14:35:47;5.90;99.90
20759;DHT22;10539;53.686;9.158;2022-12-07T14:38:13;5.90;99.90
20759;DHT22;10539;53.686;9.158;2022-12-07T14:40:39;5.90;99.90
20759;DHT22;10539;53.686;9.158;2022-12-07T14:43:09;5.90;99.90
20759;DHT22;10539;53.686;9.158;2022-12-07T14:45:35;6.00;99.90
20759;DHT22;10539;53.686;9.158;2022-12-07T14:48:01;6.00;99.90
20759;DHT22;10539;53.686;9.158;2022-12-07T14:50:27;6.00;99.90
20759;DHT22;10539;53.686;9.158;2022-12-07T14:52:59;6.00;99.90
20759;DHT22;10539;53.686;9.158;2022-12-07T14:55:27;6.00;99.90
20759;DHT22;10539;53.686;9.158;2022-12-07T14:57:54;6.00;99.90
20759;DHT22;10539;53.686;9.158;2022-12-07T15:00:22;6.00;99.90
20759;DHT22;10539;53.686;9.158;2022-12-07T15:02:48;6.10;99.90
20759;DHT22;10539;53.686;9.158;2022-12-07T15:05:15;6.10;99.90
20759;DHT22;10539;53.686;9.158;2022-12-07T15:07:40;6.10;99.90
20759;DHT22;10539;53.686;9.158;2022-12-07T15:10:15;6.10;99.90
20759;DHT22;10539;53.686;9.158;2022-12-07T15:12:41;6.10;99.90
20759;DHT22;10539;53.686;9.158;2022-12-07T15:15:08;6.00;99.90
20759;DHT22;10539;53.686;9.158;2022-12-07T15:17:33;6.00;99.90
20759;DHT22;10539;53.686;9.158;2022-12-07T15:19:59;6.00;99.90
20759;DHT22;10539;53.686;9.158;2022-12-07T15:22:25;6.00;99.90
20759;DHT22;10539;53.686;9.158;2022-12-07T15:24:51;5.90;99.90
20759;DHT22;10539;53.686;9.158;2022-12-07T15:27:16;5.90;99.90
20759;DHT22;10539;53.686;9.158;2022-12-07T15:29:42;5.90;99.90
20759;DHT22;10539;53.686;9.158;2022-12-07T15:32:08;5.90;99.90
20759;DHT22;10539;53.686;9.158;2022-12-07T15:34:33;5.80;99.90
20759;DHT22;10539;53.686;9.158;2022-12-07T15:36:59;5.80;99.90
20759;DHT22;10539;53.686;9.158;2022-12-07T15:39:25;5.80;99.90
20759;DHT22;10539;53.686;9.158;2022-12-07T15:41:50;5.80;99.90
20759;DHT22;10539;53.686;9.158;2022-12-07T15:44:16;5.70;99.90
20759;DHT22;10539;53.686;9.158;2022-12-07T15:47:01;5.70;99.90
20759;DHT22;10539;53.686;9.158;2022-12-07T15:49:27;5.60;99.90
20759;DHT22;10539;53.686;9.158;2022-12-07T15:51:53;5.60;99.90
20759;DHT22;10539;53.686;9.158;2022-12-07T15:54:24;5.60;99.90
20759;DHT22;10539;53.686;9.158;2022-12-07T15:56:51;5.60;99.90
20759;DHT22;10539;53.686;9.158;2022-12-07T15:59:16;5.60;99.90
20759;DHT22;10539;53.686;9.158;2022-12-07T16:01:43;5.60;99.90
20759;DHT22;10539;53.686;9.158;2022-12-07T16:04:08;5.60;99.90
20759;DHT22;10539;53.686;9.158;2022-12-07T16:06:34;5.50;99.90
20759;DHT22;10539;53.686;9.158;2022-12-07T16:09:00;5.60;99.90
20759;DHT22;10539;53.686;9.158;2022-12-07T16:11:26;5.50;99.90
20759;DHT22;10539;53.686;9.158;2022-12-07T16:13:52;5.50;99.90
20759;DHT22;10539;53.686;9.158;2022-12-07T16:16:18;5.50;99.90
20759;DHT22;10539;53.686;9.158;2022-12-07T16:18:46;5.40;99.90
20759;DHT22;10539;53.686;9.158;2022-12-07T16:21:13;5.40;99.90
20759;DHT22;10539;53.686;9.158;2022-12-07T16:23:39;5.30;99.90
20759;DHT22;10539;53.686;9.158;2022-12-07T16:26:10;5.30;99.90
20759;DHT22;10539;53.686;9.158;2022-12-07T16:28:37;5.20;99.90
20759;DHT22;10539;53.686;9.158;2022-12-07T16:31:23;5.10;99.90
20759;DHT22;10539;53.686;9.158;2022-12-07T16:33:52;5.00;99.90
20759;DHT22;10539;53.686;9.158;2022-12-07T16:36:19;4.90;99.90
20759;DHT22;10539;53.686;9.158;2022-12-07T16:38:48;4.90;99.90
20759;DHT22;10539;53.686;9.158;2022-12-07T16:41:14;4.80;99.90
20759;DHT22;10539;53.686;9.158;2022-12-07T16:43:40;4.70;99.90
20759;DHT22;10539;53.686;9.158;2022-12-07T16:46:06;4.70;99.90
20759;DHT22;10539;53.686;9.158;2022-12-07T16:48:35;4.60;99.90
20759;DHT22;10539;53.686;9.158;2022-12-07T16:51:06;4.60;99.90
20759;DHT22;10539;53.686;9.158;2022-12-07T16:53:34;4.50;99.90
20759;DHT22;10539;53.686;9.158;2022-12-07T16:56:00;4.50;99.90
20759;DHT22;10539;53.686;9.158;2022-12-07T16:58:26;4.50;99.90
20759;DHT22;10539;53.686;9.158;2022-12-07T17:00:52;4.50;99.90
20759;DHT22;10539;53.686;9.158;2022-12-07T17:03:18;4.50;99.90
20759;DHT22;10539;53.686;9.158;2022-12-07T17:05:46;4.50;99.90
20759;DHT22;10539;53.686;9.158;2022-12-07T17:08:12;4.50;99.90
20759;DHT22;10539;53.686;9.158;2022-12-07T17:10:40;4.50;99.90
20759;DHT22;10539;53.686;9.158;2022-12-07T17:13:06;4.50;99.90
20759;DHT22;10539;53.686;9.158;2022-12-07T17:16:04;4.40;99.90
20759;DHT22;10539;53.686;9.158;2022-12-07T17:18:32;4.40;99.90
20759;DHT22;10539;53.686;9.158;2022-12-07T17:21:03;4.40;99.90
20759;DHT22;10539;53.686;9.158;2022-12-07T17:23:29;4.50;99.90
20759;DHT22;10539;53.686;9.158;2022-12-07T17:25:56;4.50;99.90
20759;DHT22;10539;53.686;9.158;2022-12-07T17:28:21;4.50;99.90
20759;DHT22;10539;53.686;9.158;2022-12-07T17:30:47;4.50;99.90
20759;DHT22;10539;53.686;9.158;2022-12-07T17:33:13;4.50;99.90
20759;DHT22;10539;53.686;9.158;2022-12-07T17:35:38;4.40;99.90
20759;DHT22;10539;53.686;9.158;2022-12-07T17:38:04;4.40;99.90
20759;DHT22;10539;53.686;9.158;2022-12-07T17:40:30;4.40;99.90
20759;DHT22;10539;53.686;9.158;2022-12-07T17:42:56;4.40;99.90
20759;DHT22;10539;53.686;9.158;2022-12-07T17:45:21;4.30;99.90
20759;DHT22;10539;53.686;9.158;2022-12-07T17:47:47;4.30;99.90
20759;DHT22;10539;53.686;9.158;2022-12-07T17:50:13;4.40;99.90
20759;DHT22;10539;53.686;9.158;2022-12-07T17:52:39;4.40;99.90
20759;DHT22;10539;53.686;9.158;2022-12-07T17:55:24;4.40;99.90
20759;DHT22;10539;53.686;9.158;2022-12-07T17:57:50;4.40;99.90
20759;DHT22;10539;53.686;9.158;2022-12-07T18:00:17;4.40;99.90
20759;DHT22;10539;53.686;9.158;2022-12-07T18:02:44;4.40;99.90
20759;DHT22;10539;53.686;9.158;2022-12-07T18:05:09;4.40;99.90
20759;DHT22;10539;53.686;9.158;2022-12-07T18:07:35;4.40;99.90
20759;DHT22;10539;53.686;9.158;2022-12-07T18:10:01;4.40;99.90